Cabrerets ULM

FR-0337 · Lot, Occitanie, 法国

罗盘
风向 的 风向 的 风向 到 风向 340°
风: 6 kt, 2 beaufort

添加一条跑道以查看侧风和逆风信息。

添置 跑道
0 ft 1.000 2.000 3.000 4.000 5.000
CAVOK
METAR LFCR 021500Z AUTO 34006KT 310V020 CAVOK 08/M00 Q1031 NOSIG

METAR Cabrerets ULM - FR-0337

Cabrerets ULM是,法国中的小机场。 视场标高为1.177 ft。 该领域的国际民航组织标志是FR-0337.

这份报告是针对2023年2月2日 16:00, 当地时间在Rodez-Marcillac Airport进行的。

机场观察

风向为340°,速度为6 kt。 风向在310°和020°之间变化。

天气为CAVOK。这意味着在5.000 ft或MSA(最低安全高度)以下(以较高者为准)以下没有云。这也意味着没有观测到积雨云或高耸的积云,可见度为10 km 或者更多或更高。此外,不会有雾,降雨或其他重要天气。

温度为8 °C,阵风为4 °C。 海平面上的气压为1031 hPa (QNH)。

白天

今天,太阳从08:11升起,在18:03降落。 这适用于Cabrerets ULM,世界夏令时可能有所不同。 当地时间与世界标准时间之间的时差为+1 小时。 当前,没有夏令时有效。

公司介绍

我们没有关于这个机场的公司信息。

体会

到Vliegles.nl去找飞行课程,跳伞和其他飞行体验。 浏览页面,了解Cabrerets ULM附近所有可用的活动。 你也可以使用搜索功能来寻找你所在地附近的特定飞行课程、跳伞或其他飞行体验。

温度 & 天气

温度 8 °C
露点 0 °C
相对湿度 57%
风寒 4 °C
Kp-index 0 (0-9)

白天

日出
08:07
中午
13:03
日落
18:00 (1:46)

小工具

你想在你的网站上有一个关于Cabrerets ULM的当前航空天气(METAR)的小部件吗?

显示HTML代码

我们和第三方通过cookies跟踪您在我们网站上的互联网行为。如果你继续,我们认为你同意我们的饼干政策